Agana Heights, GU

12:34 AM ChST on September 21, 2014 (GMT +1000)
Maite | Change Station
CLOSE
Current Station
Personal Weather Station
Location: Maite, GU
Elevation: 140 ft
Nearby Weather Stations

Elev 140 ft 13.48 °N, 144.76 °E | Updated 3 seconds ago

Partly Cloudy
Partly Cloudy
81.6 °F
Feels Like 90 °F
N
2.0
Wind Variable Wind from ESE
Gusts 4.0 mph

Today
High -- | Low -- °F
--% Chance of Precip.
Yesterday
High -- | Low -- °F
Precip. -- in
6:10 AM 6:18 PM
Waning Crescent, 12% visible
Pressure 29.82 in
Visibility 10.0 miles
Clouds Few 2000 ft
Heat Index 90 °F
Dew Point 78 °F
Humidity 89%
Rainfall 0.00 in
Snow Depth Not available.
UV 0.0 out of 12
Pollen Not available.
Air Quality Not available.
Flu Activity Not available.
METAR PGUM 201354Z 08004KT 10SM FEW020 28/25 A2984 RMK AO2 SLP097 T02780250 403220261

More Conditions Fewer Conditions

Pressure 29.82 in
Visibility 10.0 miles
Clouds Few 2000 ft
Heat Index 90 °F
Dew Point 78 °F
Humidity 89%
Rainfall 0.00 in
Snow Depth Not available.
UV 0.0 out of 12
Pollen Not available.
Air Quality Not available.
Flu Activity Not available.
METAR PGUM 201354Z 08004KT 10SM FEW020 28/25 A2984 RMK AO2 SLP097 T02780250 403220261

More Conditions Fewer Conditions

10-Day Weather Forecast

Almanac

Astronomy

Sep. 21, 2014 Rise Set
Actual Time 6:10 AM ChST 6:18 PM ChST
Civil Twilight 5:48 AM ChST 6:39 PM ChST
Nautical Twilight 5:24 AM ChST 7:04 PM ChST
Astronomical Twilight 4:59 AM ChST 7:28 PM ChST
Moon 3:32 AM ChST (9/21) 4:13 PM ChST (9/21)
Length of Visible Light 12h 50m
Length of Day
12h 08m
Tomorrow will be 0m 44s shorter.
Waning Crescent, 12% of the Moon is Illuminated
Sep 20
Waning Crescent
Sep 24
New
Oct 1
First Quarter
Oct 8
Full
Oct 15
Last Quarter

Community

WunderPhotos

Upload Photos

1,754,872 photos uploaded!

WunderBlogs® & News

Nearby

Snow Depth

Station Depth Elevation
No new snow has been reported.

Earthquake Activity

City Distance Mag. Time & Date
No recent earthquake activity has been reported nearby.
Minimum magnitude displayed is 2.5.

Coastal Water Temperatures

Place Temperature
No Stations Reporting

Nearby Weather Stations